sensor_id;sensor_type;location;lat;lon;timestamp;P1;durP1;ratioP1;P2;durP2;ratioP2
57191;SDS011;43052;52.588;13.396;2023-07-20T00:02:04;7.18;;;5.85;;
57191;SDS011;43052;52.588;13.396;2023-07-20T00:04:30;7.93;;;7.13;;
57191;SDS011;43052;52.588;13.396;2023-07-20T00:06:56;7.35;;;6.05;;
57191;SDS011;43052;52.588;13.396;2023-07-20T00:09:21;8.65;;;6.55;;
57191;SDS011;43052;52.588;13.396;2023-07-20T00:11:50;8.40;;;6.47;;
57191;SDS011;43052;52.588;13.396;2023-07-20T00:14:16;8.43;;;6.55;;
57191;SDS011;43052;52.588;13.396;2023-07-20T00:16:43;8.15;;;7.35;;
57191;SDS011;43052;52.588;13.396;2023-07-20T00:19:08;8.27;;;7.28;;
57191;SDS011;43052;52.588;13.396;2023-07-20T00:21:35;9.02;;;7.50;;
57191;SDS011;43052;52.588;13.396;2023-07-20T00:24:00;8.07;;;7.28;;
57191;SDS011;43052;52.588;13.396;2023-07-20T00:26:26;7.90;;;6.90;;
57191;SDS011;43052;52.588;13.396;2023-07-20T00:28:51;9.40;;;7.40;;
57191;SDS011;43052;52.588;13.396;2023-07-20T00:31:16;9.07;;;8.18;;
57191;SDS011;43052;52.588;13.396;2023-07-20T00:33:42;8.80;;;7.13;;
57191;SDS011;43052;52.588;13.396;2023-07-20T00:36:07;9.10;;;7.72;;
57191;SDS011;43052;52.588;13.396;2023-07-20T00:38:32;9.55;;;7.78;;
57191;SDS011;43052;52.588;13.396;2023-07-20T00:40:58;9.35;;;8.30;;
57191;SDS011;43052;52.588;13.396;2023-07-20T00:43:23;10.23;;;9.13;;
57191;SDS011;43052;52.588;13.396;2023-07-20T00:45:48;8.93;;;8.02;;
57191;SDS011;43052;52.588;13.396;2023-07-20T00:48:14;10.20;;;8.55;;
57191;SDS011;43052;52.588;13.396;2023-07-20T00:50:39;10.02;;;9.02;;
57191;SDS011;43052;52.588;13.396;2023-07-20T00:53:05;9.95;;;8.52;;
57191;SDS011;43052;52.588;13.396;2023-07-20T00:55:31;10.27;;;9.27;;
57191;SDS011;43052;52.588;13.396;2023-07-20T00:57:57;11.23;;;9.27;;
57191;SDS011;43052;52.588;13.396;2023-07-20T01:00:23;10.77;;;9.68;;
57191;SDS011;43052;52.588;13.396;2023-07-20T01:02:48;11.05;;;9.68;;
57191;SDS011;43052;52.588;13.396;2023-07-20T01:05:13;11.82;;;10.50;;
57191;SDS011;43052;52.588;13.396;2023-07-20T01:07:52;11.02;;;9.98;;
57191;SDS011;43052;52.588;13.396;2023-07-20T01:13:11;10.98;;;9.90;;
57191;SDS011;43052;52.588;13.396;2023-07-20T01:15:39;10.30;;;9.27;;
57191;SDS011;43052;52.588;13.396;2023-07-20T01:18:04;10.55;;;8.98;;
57191;SDS011;43052;52.588;13.396;2023-07-20T01:20:30;8.93;;;8.02;;
57191;SDS011;43052;52.588;13.396;2023-07-20T01:23:12;9.02;;;8.20;;
57191;SDS011;43052;52.588;13.396;2023-07-20T01:26:12;9.27;;;8.38;;
57191;SDS011;43052;52.588;13.396;2023-07-20T01:31:54;9.15;;;8.25;;
57191;SDS011;43052;52.588;13.396;2023-07-20T01:34:22;9.05;;;8.15;;
57191;SDS011;43052;52.588;13.396;2023-07-20T01:36:49;9.30;;;8.38;;
57191;SDS011;43052;52.588;13.396;2023-07-20T01:39:17;9.45;;;8.55;;
57191;SDS011;43052;52.588;13.396;2023-07-20T01:41:43;10.85;;;9.75;;
57191;SDS011;43052;52.588;13.396;2023-07-20T01:44:09;10.35;;;9.35;;
57191;SDS011;43052;52.588;13.396;2023-07-20T01:46:35;10.00;;;8.98;;
57191;SDS011;43052;52.588;13.396;2023-07-20T01:49:01;9.55;;;8.63;;
57191;SDS011;43052;52.588;13.396;2023-07-20T01:51:26;9.40;;;8.50;;
57191;SDS011;43052;52.588;13.396;2023-07-20T01:53:51;9.90;;;9.00;;
57191;SDS011;43052;52.588;13.396;2023-07-20T01:56:20;9.98;;;8.98;;
57191;SDS011;43052;52.588;13.396;2023-07-20T01:58:45;9.40;;;8.43;;
57191;SDS011;43052;52.588;13.396;2023-07-20T02:01:10;9.85;;;8.85;;
57191;SDS011;43052;52.588;13.396;2023-07-20T02:03:36;10.00;;;9.10;;
57191;SDS011;43052;52.588;13.396;2023-07-20T02:06:01;11.05;;;9.95;;
57191;SDS011;43052;52.588;13.396;2023-07-20T02:08:27;11.43;;;9.82;;
57191;SDS011;43052;52.588;13.396;2023-07-20T02:10:52;11.95;;;10.77;;
57191;SDS011;43052;52.588;13.396;2023-07-20T02:13:17;11.25;;;10.15;;
57191;SDS011;43052;52.588;13.396;2023-07-20T02:15:42;12.48;;;11.15;;
57191;SDS011;43052;52.588;13.396;2023-07-20T02:18:08;12.13;;;11.02;;
57191;SDS011;43052;52.588;13.396;2023-07-20T02:20:34;12.57;;;11.43;;
57191;SDS011;43052;52.588;13.396;2023-07-20T02:23:00;11.48;;;10.48;;
57191;SDS011;43052;52.588;13.396;2023-07-20T02:25:25;11.35;;;10.23;;
57191;SDS011;43052;52.588;13.396;2023-07-20T02:27:50;11.88;;;10.68;;
57191;SDS011;43052;52.588;13.396;2023-07-20T02:30:16;13.13;;;11.82;;
57191;SDS011;43052;52.588;13.396;2023-07-20T02:32:42;13.48;;;12.18;;
57191;SDS011;43052;52.588;13.396;2023-07-20T02:35:10;13.43;;;12.13;;
57191;SDS011;43052;52.588;13.396;2023-07-20T02:37:39;13.50;;;12.10;;
57191;SDS011;43052;52.588;13.396;2023-07-20T02:40:04;13.68;;;12.27;;
57191;SDS011;43052;52.588;13.396;2023-07-20T02:42:32;14.60;;;13.20;;
57191;SDS011;43052;52.588;13.396;2023-07-20T02:44:57;14.13;;;12.63;;
57191;SDS011;43052;52.588;13.396;2023-07-20T02:47:23;14.00;;;12.60;;
57191;SDS011;43052;52.588;13.396;2023-07-20T02:49:48;13.90;;;12.60;;
57191;SDS011;43052;52.588;13.396;2023-07-20T02:52:16;14.13;;;12.82;;
57191;SDS011;43052;52.588;13.396;2023-07-20T02:54:48;13.63;;;12.30;;
57191;SDS011;43052;52.588;13.396;2023-07-20T02:57:13;14.57;;;13.05;;
57191;SDS011;43052;52.588;13.396;2023-07-20T02:59:39;15.32;;;13.68;;
57191;SDS011;43052;52.588;13.396;2023-07-20T03:02:04;14.73;;;13.30;;
57191;SDS011;43052;52.588;13.396;2023-07-20T03:04:29;16.08;;;14.55;;
57191;SDS011;43052;52.588;13.396;2023-07-20T03:06:55;15.38;;;13.77;;
57191;SDS011;43052;52.588;13.396;2023-07-20T03:09:24;16.50;;;14.68;;
57191;SDS011;43052;52.588;13.396;2023-07-20T03:11:50;15.90;;;14.20;;
57191;SDS011;43052;52.588;13.396;2023-07-20T03:14:17;15.48;;;13.88;;
57191;SDS011;43052;52.588;13.396;2023-07-20T03:16:46;16.67;;;15.02;;
57191;SDS011;43052;52.588;13.396;2023-07-20T03:19:14;17.48;;;14.38;;
57191;SDS011;43052;52.588;13.396;2023-07-20T03:21:39;17.40;;;15.23;;
57191;SDS011;43052;52.588;13.396;2023-07-20T03:24:06;17.73;;;15.75;;
57191;SDS011;43052;52.588;13.396;2023-07-20T03:26:35;17.05;;;15.25;;
57191;SDS011;43052;52.588;13.396;2023-07-20T03:29:01;17.58;;;15.70;;
57191;SDS011;43052;52.588;13.396;2023-07-20T03:31:27;17.60;;;15.57;;
57191;SDS011;43052;52.588;13.396;2023-07-20T03:33:52;19.67;;;16.30;;
57191;SDS011;43052;52.588;13.396;2023-07-20T03:36:18;19.15;;;16.90;;
57191;SDS011;43052;52.588;13.396;2023-07-20T03:38:45;19.80;;;15.82;;
57191;SDS011;43052;52.588;13.396;2023-07-20T03:41:14;20.15;;;16.67;;
57191;SDS011;43052;52.588;13.396;2023-07-20T03:43:43;18.98;;;17.00;;
57191;SDS011;43052;52.588;13.396;2023-07-20T03:46:09;18.50;;;16.30;;
57191;SDS011;43052;52.588;13.396;2023-07-20T03:48:34;18.10;;;16.20;;
57191;SDS011;43052;52.588;13.396;2023-07-20T03:50:59;18.83;;;16.63;;
57191;SDS011;43052;52.588;13.396;2023-07-20T03:53:28;16.88;;;14.60;;
57191;SDS011;43052;52.588;13.396;2023-07-20T03:55:53;17.52;;;15.55;;
57191;SDS011;43052;52.588;13.396;2023-07-20T03:58:20;17.13;;;15.32;;
57191;SDS011;43052;52.588;13.396;2023-07-20T04:00:50;16.50;;;14.82;;
57191;SDS011;43052;52.588;13.396;2023-07-20T04:03:17;15.70;;;14.10;;
57191;SDS011;43052;52.588;13.396;2023-07-20T04:05:43;15.88;;;14.27;;
57191;SDS011;43052;52.588;13.396;2023-07-20T04:08:09;15.05;;;13.55;;
57191;SDS011;43052;52.588;13.396;2023-07-20T04:10:37;14.55;;;13.25;;
57191;SDS011;43052;52.588;13.396;2023-07-20T04:13:03;15.98;;;14.38;;
57191;SDS011;43052;52.588;13.396;2023-07-20T04:15:28;15.68;;;14.20;;
57191;SDS011;43052;52.588;13.396;2023-07-20T04:17:54;15.90;;;14.30;;
57191;SDS011;43052;52.588;13.396;2023-07-20T04:20:21;15.98;;;14.48;;
57191;SDS011;43052;52.588;13.396;2023-07-20T04:22:47;16.48;;;14.88;;
57191;SDS011;43052;52.588;13.396;2023-07-20T04:25:12;15.85;;;14.27;;
57191;SDS011;43052;52.588;13.396;2023-07-20T04:27:37;15.10;;;13.63;;
57191;SDS011;43052;52.588;13.396;2023-07-20T04:30:03;16.30;;;14.60;;
57191;SDS011;43052;52.588;13.396;2023-07-20T04:32:28;15.48;;;13.90;;
57191;SDS011;43052;52.588;13.396;2023-07-20T04:34:54;17.50;;;15.52;;
57191;SDS011;43052;52.588;13.396;2023-07-20T04:37:19;16.27;;;14.60;;
57191;SDS011;43052;52.588;13.396;2023-07-20T04:39:45;15.98;;;14.38;;
57191;SDS011;43052;52.588;13.396;2023-07-20T04:42:11;15.63;;;14.02;;
57191;SDS011;43052;52.588;13.396;2023-07-20T04:44:36;15.50;;;13.93;;
57191;SDS011;43052;52.588;13.396;2023-07-20T04:47:01;15.45;;;13.90;;
57191;SDS011;43052;52.588;13.396;2023-07-20T04:49:28;13.85;;;12.55;;
57191;SDS011;43052;52.588;13.396;2023-07-20T04:51:53;14.40;;;13.10;;
57191;SDS011;43052;52.588;13.396;2023-07-20T04:54:19;13.00;;;11.80;;
57191;SDS011;43052;52.588;13.396;2023-07-20T04:56:44;12.30;;;11.10;;
57191;SDS011;43052;52.588;13.396;2023-07-20T04:59:10;12.07;;;10.98;;
57191;SDS011;43052;52.588;13.396;2023-07-20T05:01:35;12.43;;;11.23;;
57191;SDS011;43052;52.588;13.396;2023-07-20T05:04:01;11.38;;;10.30;;
57191;SDS011;43052;52.588;13.396;2023-07-20T05:06:35;11.48;;;10.27;;
57191;SDS011;43052;52.588;13.396;2023-07-20T05:09:03;9.98;;;8.95;;
57191;SDS011;43052;52.588;13.396;2023-07-20T05:11:35;11.98;;;9.77;;
57191;SDS011;43052;52.588;13.396;2023-07-20T05:14:13;10.65;;;9.55;;
57191;SDS011;43052;52.588;13.396;2023-07-20T05:16:41;11.35;;;9.30;;
57191;SDS011;43052;52.588;13.396;2023-07-20T05:19:07;12.80;;;10.25;;
57191;SDS011;43052;52.588;13.396;2023-07-20T05:21:44;11.55;;;10.40;;
57191;SDS011;43052;52.588;13.396;2023-07-20T05:24:38;9.90;;;8.90;;
57191;SDS011;43052;52.588;13.396;2023-07-20T05:27:23;10.35;;;9.23;;
57191;SDS011;43052;52.588;13.396;2023-07-20T05:30:27;11.00;;;9.90;;
57191;SDS011;43052;52.588;13.396;2023-07-20T05:36:32;10.40;;;8.90;;
57191;SDS011;43052;52.588;13.396;2023-07-20T05:43:00;9.02;;;8.13;;
57191;SDS011;43052;52.588;13.396;2023-07-20T05:48:55;10.45;;;7.65;;
57191;SDS011;43052;52.588;13.396;2023-07-20T05:51:38;10.05;;;6.68;;
57191;SDS011;43052;52.588;13.396;2023-07-20T05:54:35;7.15;;;6.18;;
57191;SDS011;43052;52.588;13.396;2023-07-20T05:57:28;7.03;;;6.32;;
57191;SDS011;43052;52.588;13.396;2023-07-20T06:00:07;8.32;;;6.03;;
57191;SDS011;43052;52.588;13.396;2023-07-20T06:02:35;6.75;;;5.80;;
57191;SDS011;43052;52.588;13.396;2023-07-20T06:05:04;8.63;;;6.90;;
57191;SDS011;43052;52.588;13.396;2023-07-20T06:07:32;7.47;;;6.10;;
57191;SDS011;43052;52.588;13.396;2023-07-20T06:10:03;8.85;;;6.72;;
57191;SDS011;43052;52.588;13.396;2023-07-20T06:12:32;8.45;;;6.50;;
57191;SDS011;43052;52.588;13.396;2023-07-20T06:15:01;8.40;;;5.40;;
57191;SDS011;43052;52.588;13.396;2023-07-20T06:17:29;7.68;;;5.70;;
57191;SDS011;43052;52.588;13.396;2023-07-20T06:19:58;6.45;;;4.68;;
57191;SDS011;43052;52.588;13.396;2023-07-20T06:22:23;6.40;;;5.20;;
57191;SDS011;43052;52.588;13.396;2023-07-20T06:24:51;7.80;;;5.22;;
57191;SDS011;43052;52.588;13.396;2023-07-20T06:27:17;7.15;;;4.78;;
57191;SDS011;43052;52.588;13.396;2023-07-20T06:29:45;5.80;;;3.90;;
57191;SDS011;43052;52.588;13.396;2023-07-20T06:32:12;4.93;;;3.97;;
57191;SDS011;43052;52.588;13.396;2023-07-20T06:34:38;6.65;;;3.80;;
57191;SDS011;43052;52.588;13.396;2023-07-20T06:37:04;6.18;;;3.92;;
57191;SDS011;43052;52.588;13.396;2023-07-20T06:39:32;7.15;;;3.95;;
57191;SDS011;43052;52.588;13.396;2023-07-20T06:41:57;5.32;;;3.38;;
57191;SDS011;43052;52.588;13.396;2023-07-20T06:44:23;6.63;;;3.40;;
57191;SDS011;43052;52.588;13.396;2023-07-20T06:46:48;4.25;;;3.08;;
57191;SDS011;43052;52.588;13.396;2023-07-20T06:49:26;4.22;;;3.03;;
57191;SDS011;43052;52.588;13.396;2023-07-20T06:51:52;3.15;;;2.67;;
57191;SDS011;43052;52.588;13.396;2023-07-20T06:54:17;3.80;;;2.03;;
57191;SDS011;43052;52.588;13.396;2023-07-20T06:56:46;6.05;;;2.60;;
57191;SDS011;43052;52.588;13.396;2023-07-20T06:59:11;5.07;;;2.67;;
57191;SDS011;43052;52.588;13.396;2023-07-20T07:01:39;4.32;;;2.80;;
57191;SDS011;43052;52.588;13.396;2023-07-20T07:04:04;3.47;;;2.75;;
57191;SDS011;43052;52.588;13.396;2023-07-20T07:06:32;4.38;;;2.60;;
57191;SDS011;43052;52.588;13.396;2023-07-20T07:08:58;3.63;;;2.40;;
57191;SDS011;43052;52.588;13.396;2023-07-20T07:11:24;4.85;;;2.40;;
57191;SDS011;43052;52.588;13.396;2023-07-20T07:13:49;2.63;;;2.17;;
57191;SDS011;43052;52.588;13.396;2023-07-20T07:16:17;3.22;;;2.05;;
57191;SDS011;43052;52.588;13.396;2023-07-20T07:18:47;2.92;;;2.55;;
57191;SDS011;43052;52.588;13.396;2023-07-20T07:21:15;3.63;;;2.10;;
57191;SDS011;43052;52.588;13.396;2023-07-20T07:23:40;4.75;;;2.05;;
57191;SDS011;43052;52.588;13.396;2023-07-20T07:26:09;5.82;;;2.20;;
57191;SDS011;43052;52.588;13.396;2023-07-20T07:28:35;3.20;;;2.38;;
57191;SDS011;43052;52.588;13.396;2023-07-20T07:31:04;3.95;;;2.28;;
57191;SDS011;43052;52.588;13.396;2023-07-20T07:33:34;1.77;;;1.67;;
57191;SDS011;43052;52.588;13.396;2023-07-20T07:36:04;3.25;;;1.85;;
57191;SDS011;43052;52.588;13.396;2023-07-20T07:38:30;2.30;;;1.73;;
57191;SDS011;43052;52.588;13.396;2023-07-20T07:40:58;3.80;;;1.50;;
57191;SDS011;43052;52.588;13.396;2023-07-20T07:43:24;1.60;;;1.50;;
57191;SDS011;43052;52.588;13.396;2023-07-20T07:45:49;2.13;;;1.95;;
57191;SDS011;43052;52.588;13.396;2023-07-20T07:48:15;1.65;;;1.55;;
57191;SDS011;43052;52.588;13.396;2023-07-20T07:50:45;2.53;;;1.85;;
57191;SDS011;43052;52.588;13.396;2023-07-20T07:53:10;1.85;;;1.75;;
57191;SDS011;43052;52.588;13.396;2023-07-20T07:55:39;2.30;;;1.77;;
57191;SDS011;43052;52.588;13.396;2023-07-20T07:58:04;1.85;;;1.50;;
57191;SDS011;43052;52.588;13.396;2023-07-20T08:00:30;2.97;;;1.40;;
57191;SDS011;43052;52.588;13.396;2023-07-20T08:02:55;2.55;;;1.40;;
57191;SDS011;43052;52.588;13.396;2023-07-20T08:05:20;2.80;;;1.50;;
57191;SDS011;43052;52.588;13.396;2023-07-20T08:07:46;3.38;;;1.63;;
57191;SDS011;43052;52.588;13.396;2023-07-20T08:10:11;2.25;;;1.20;;
57191;SDS011;43052;52.588;13.396;2023-07-20T08:12:37;1.48;;;1.30;;
57191;SDS011;43052;52.588;13.396;2023-07-20T08:15:02;3.30;;;1.35;;
57191;SDS011;43052;52.588;13.396;2023-07-20T08:17:28;2.88;;;1.20;;
57191;SDS011;43052;52.588;13.396;2023-07-20T08:19:54;3.10;;;1.40;;
57191;SDS011;43052;52.588;13.396;2023-07-20T08:22:19;1.60;;;1.50;;
57191;SDS011;43052;52.588;13.396;2023-07-20T08:24:45;1.65;;;1.55;;
57191;SDS011;43052;52.588;13.396;2023-07-20T08:27:10;1.73;;;1.30;;
57191;SDS011;43052;52.588;13.396;2023-07-20T08:29:36;1.38;;;1.27;;
57191;SDS011;43052;52.588;13.396;2023-07-20T08:32:02;1.40;;;1.30;;
57191;SDS011;43052;52.588;13.396;2023-07-20T08:34:29;1.15;;;1.05;;
57191;SDS011;43052;52.588;13.396;2023-07-20T08:36:54;2.42;;;1.00;;
57191;SDS011;43052;52.588;13.396;2023-07-20T08:39:23;1.27;;;1.17;;
57191;SDS011;43052;52.588;13.396;2023-07-20T08:41:51;1.48;;;1.27;;
57191;SDS011;43052;52.588;13.396;2023-07-20T08:44:17;1.35;;;1.10;;
57191;SDS011;43052;52.588;13.396;2023-07-20T08:46:42;1.38;;;1.27;;
57191;SDS011;43052;52.588;13.396;2023-07-20T08:49:08;1.40;;;1.30;;
57191;SDS011;43052;52.588;13.396;2023-07-20T08:51:33;1.63;;;1.27;;
57191;SDS011;43052;52.588;13.396;2023-07-20T08:54:00;2.70;;;1.27;;
57191;SDS011;43052;52.588;13.396;2023-07-20T08:56:26;1.17;;;1.00;;
57191;SDS011;43052;52.588;13.396;2023-07-20T08:58:51;1.02;;;0.93;;
57191;SDS011;43052;52.588;13.396;2023-07-20T09:01:18;1.08;;;1.08;;
57191;SDS011;43052;52.588;13.396;2023-07-20T09:03:44;1.60;;;1.20;;
57191;SDS011;43052;52.588;13.396;2023-07-20T09:06:11;1.25;;;0.80;;
57191;SDS011;43052;52.588;13.396;2023-07-20T09:08:40;1.38;;;0.95;;
57191;SDS011;43052;52.588;13.396;2023-07-20T09:11:06;1.40;;;1.00;;
57191;SDS011;43052;52.588;13.396;2023-07-20T09:13:32;1.15;;;1.13;;
57191;SDS011;43052;52.588;13.396;2023-07-20T09:15:58;1.83;;;1.00;;
57191;SDS011;43052;52.588;13.396;2023-07-20T09:18:28;1.30;;;0.93;;
57191;SDS011;43052;52.588;13.396;2023-07-20T09:20:58;1.35;;;0.90;;
57191;SDS011;43052;52.588;13.396;2023-07-20T09:23:29;0.88;;;0.88;;
57191;SDS011;43052;52.588;13.396;2023-07-20T09:25:57;1.00;;;0.88;;
57191;SDS011;43052;52.588;13.396;2023-07-20T09:28:22;1.15;;;0.90;;
57191;SDS011;43052;52.588;13.396;2023-07-20T09:30:47;2.50;;;0.80;;
57191;SDS011;43052;52.588;13.396;2023-07-20T09:33:21;0.90;;;0.50;;
57191;SDS011;43052;52.588;13.396;2023-07-20T09:35:47;0.80;;;0.80;;
57191;SDS011;43052;52.588;13.396;2023-07-20T09:38:12;2.42;;;0.70;;
57191;SDS011;43052;52.588;13.396;2023-07-20T09:40:39;1.13;;;0.90;;
57191;SDS011;43052;52.588;13.396;2023-07-20T09:43:07;2.85;;;1.00;;
57191;SDS011;43052;52.588;13.396;2023-07-20T09:45:33;1.55;;;1.13;;
57191;SDS011;43052;52.588;13.396;2023-07-20T09:48:03;3.15;;;1.85;;
57191;SDS011;43052;52.588;13.396;2023-07-20T09:50:30;1.20;;;1.10;;
57191;SDS011;43052;52.588;13.396;2023-07-20T09:52:55;3.05;;;1.30;;
57191;SDS011;43052;52.588;13.396;2023-07-20T09:55:21;1.98;;;1.30;;
57191;SDS011;43052;52.588;13.396;2023-07-20T09:57:49;1.40;;;1.15;;
57191;SDS011;43052;52.588;13.396;2023-07-20T10:00:20;1.73;;;1.10;;
57191;SDS011;43052;52.588;13.396;2023-07-20T10:02:46;1.98;;;1.20;;
57191;SDS011;43052;52.588;13.396;2023-07-20T10:05:12;2.15;;;1.20;;
57191;SDS011;43052;52.588;13.396;2023-07-20T10:07:40;2.28;;;1.33;;
57191;SDS011;43052;52.588;13.396;2023-07-20T10:10:11;2.05;;;1.20;;
57191;SDS011;43052;52.588;13.396;2023-07-20T10:12:39;1.42;;;1.33;;
57191;SDS011;43052;52.588;13.396;2023-07-20T10:15:10;2.15;;;1.20;;
57191;SDS011;43052;52.588;13.396;2023-07-20T10:17:41;2.70;;;1.45;;
57191;SDS011;43052;52.588;13.396;2023-07-20T10:20:15;1.27;;;1.13;;
57191;SDS011;43052;52.588;13.396;2023-07-20T10:22:44;3.08;;;1.30;;
57191;SDS011;43052;52.588;13.396;2023-07-20T10:25:12;1.95;;;1.10;;
57191;SDS011;43052;52.588;13.396;2023-07-20T10:27:39;4.03;;;1.40;;
57191;SDS011;43052;52.588;13.396;2023-07-20T10:30:05;1.65;;;1.23;;
57191;SDS011;43052;52.588;13.396;2023-07-20T10:32:31;1.42;;;1.30;;
57191;SDS011;43052;52.588;13.396;2023-07-20T10:34:56;1.63;;;1.30;;
57191;SDS011;43052;52.588;13.396;2023-07-20T10:40:26;1.13;;;1.00;;
57191;SDS011;43052;52.588;13.396;2023-07-20T10:42:59;1.92;;;1.20;;
57191;SDS011;43052;52.588;13.396;2023-07-20T10:46:08;2.00;;;1.13;;
57191;SDS011;43052;52.588;13.396;2023-07-20T10:48:20;2.42;;;1.20;;
57191;SDS011;43052;52.588;13.396;2023-07-20T10:53:36;2.33;;;1.10;;
57191;SDS011;43052;52.588;13.396;2023-07-20T10:56:20;4.78;;;1.42;;
57191;SDS011;43052;52.588;13.396;2023-07-20T10:58:47;1.88;;;1.00;;
57191;SDS011;43052;52.588;13.396;2023-07-20T11:01:15;1.30;;;1.17;;
57191;SDS011;43052;52.588;13.396;2023-07-20T11:03:42;0.90;;;0.90;;
57191;SDS011;43052;52.588;13.396;2023-07-20T11:08:48;0.90;;;0.90;;
57191;SDS011;43052;52.588;13.396;2023-07-20T11:13:58;1.73;;;0.73;;
57191;SDS011;43052;52.588;13.396;2023-07-20T11:16:43;1.63;;;0.98;;
57191;SDS011;43052;52.588;13.396;2023-07-20T11:21:52;1.15;;;1.05;;
57191;SDS011;43052;52.588;13.396;2023-07-20T11:24:18;1.02;;;1.00;;
57191;SDS011;43052;52.588;13.396;2023-07-20T11:26:44;1.15;;;1.00;;
57191;SDS011;43052;52.588;13.396;2023-07-20T11:29:15;0.82;;;0.73;;
57191;SDS011;43052;52.588;13.396;2023-07-20T11:31:42;0.75;;;0.65;;
57191;SDS011;43052;52.588;13.396;2023-07-20T11:34:10;2.40;;;0.80;;
57191;SDS011;43052;52.588;13.396;2023-07-20T11:36:38;1.30;;;1.00;;
57191;SDS011;43052;52.588;13.396;2023-07-20T11:39:05;2.22;;;0.80;;
57191;SDS011;43052;52.588;13.396;2023-07-20T11:41:32;1.00;;;0.80;;
57191;SDS011;43052;52.588;13.396;2023-07-20T11:43:58;2.58;;;1.25;;
57191;SDS011;43052;52.588;13.396;2023-07-20T11:46:23;1.23;;;1.00;;
57191;SDS011;43052;52.588;13.396;2023-07-20T11:48:48;1.90;;;0.90;;
57191;SDS011;43052;52.588;13.396;2023-07-20T11:51:17;1.95;;;0.82;;
57191;SDS011;43052;52.588;13.396;2023-07-20T11:53:43;1.17;;;1.05;;
57191;SDS011;43052;52.588;13.396;2023-07-20T11:56:11;0.80;;;0.80;;
57191;SDS011;43052;52.588;13.396;2023-07-20T11:58:36;1.58;;;0.88;;
57191;SDS011;43052;52.588;13.396;2023-07-20T12:01:07;0.85;;;0.85;;
57191;SDS011;43052;52.588;13.396;2023-07-20T12:03:32;1.33;;;0.90;;
57191;SDS011;43052;52.588;13.396;2023-07-20T12:06:05;2.72;;;1.10;;
57191;SDS011;43052;52.588;13.396;2023-07-20T12:08:31;1.70;;;1.02;;
57191;SDS011;43052;52.588;13.396;2023-07-20T12:10:57;2.13;;;1.33;;
57191;SDS011;43052;52.588;13.396;2023-07-20T12:13:23;1.65;;;0.93;;
57191;SDS011;43052;52.588;13.396;2023-07-20T12:15:52;1.08;;;0.88;;
57191;SDS011;43052;52.588;13.396;2023-07-20T12:18:22;1.27;;;1.00;;
57191;SDS011;43052;52.588;13.396;2023-07-20T12:20:48;1.17;;;0.80;;
57191;SDS011;43052;52.588;13.396;2023-07-20T12:23:13;2.78;;;0.90;;
57191;SDS011;43052;52.588;13.396;2023-07-20T12:25:39;1.40;;;1.00;;
57191;SDS011;43052;52.588;13.396;2023-07-20T12:28:09;1.23;;;0.80;;
57191;SDS011;43052;52.588;13.396;2023-07-20T12:30:43;0.93;;;0.82;;
57191;SDS011;43052;52.588;13.396;2023-07-20T12:33:09;1.70;;;1.10;;
57191;SDS011;43052;52.588;13.396;2023-07-20T12:35:36;3.92;;;1.10;;
57191;SDS011;43052;52.588;13.396;2023-07-20T12:38:02;2.92;;;1.00;;
57191;SDS011;43052;52.588;13.396;2023-07-20T12:40:27;1.00;;;0.90;;
57191;SDS011;43052;52.588;13.396;2023-07-20T12:42:52;0.80;;;0.80;;
57191;SDS011;43052;52.588;13.396;2023-07-20T12:45:18;0.95;;;0.95;;
57191;SDS011;43052;52.588;13.396;2023-07-20T12:47:43;1.02;;;0.93;;
57191;SDS011;43052;52.588;13.396;2023-07-20T12:50:11;1.02;;;1.00;;
57191;SDS011;43052;52.588;13.396;2023-07-20T12:52:37;1.35;;;1.00;;
57191;SDS011;43052;52.588;13.396;2023-07-20T12:55:04;0.98;;;0.98;;
57191;SDS011;43052;52.588;13.396;2023-07-20T12:57:31;1.77;;;0.98;;
57191;SDS011;43052;52.588;13.396;2023-07-20T12:59:56;0.90;;;0.90;;
57191;SDS011;43052;52.588;13.396;2023-07-20T13:02:21;2.17;;;1.00;;
57191;SDS011;43052;52.588;13.396;2023-07-20T13:04:47;2.15;;;0.88;;
57191;SDS011;43052;52.588;13.396;2023-07-20T13:07:12;0.90;;;0.80;;
57191;SDS011;43052;52.588;13.396;2023-07-20T13:09:37;0.90;;;0.88;;
57191;SDS011;43052;52.588;13.396;2023-07-20T13:12:02;2.45;;;1.00;;
57191;SDS011;43052;52.588;13.396;2023-07-20T13:14:28;3.70;;;1.20;;
57191;SDS011;43052;52.588;13.396;2023-07-20T13:16:55;1.73;;;1.00;;
57191;SDS011;43052;52.588;13.396;2023-07-20T13:19:20;2.70;;;1.05;;
57191;SDS011;43052;52.588;13.396;2023-07-20T13:21:46;1.45;;;1.00;;
57191;SDS011;43052;52.588;13.396;2023-07-20T13:24:11;2.13;;;1.08;;
57191;SDS011;43052;52.588;13.396;2023-07-20T13:26:37;1.30;;;1.00;;
57191;SDS011;43052;52.588;13.396;2023-07-20T13:29:02;2.25;;;1.60;;
57191;SDS011;43052;52.588;13.396;2023-07-20T13:31:28;0.95;;;0.88;;
57191;SDS011;43052;52.588;13.396;2023-07-20T13:33:53;2.08;;;1.10;;
57191;SDS011;43052;52.588;13.396;2023-07-20T13:36:19;1.80;;;1.13;;
57191;SDS011;43052;52.588;13.396;2023-07-20T13:38:46;0.77;;;0.70;;
57191;SDS011;43052;52.588;13.396;2023-07-20T13:41:11;1.33;;;0.90;;
57191;SDS011;43052;52.588;13.396;2023-07-20T13:43:36;0.85;;;0.85;;
57191;SDS011;43052;52.588;13.396;2023-07-20T13:46:02;0.85;;;0.85;;
57191;SDS011;43052;52.588;13.396;2023-07-20T13:48:27;0.90;;;0.90;;
57191;SDS011;43052;52.588;13.396;2023-07-20T13:50:53;1.75;;;0.88;;
57191;SDS011;43052;52.588;13.396;2023-07-20T13:53:19;2.25;;;1.05;;
57191;SDS011;43052;52.588;13.396;2023-07-20T13:55:44;1.75;;;1.00;;
57191;SDS011;43052;52.588;13.396;2023-07-20T13:58:09;2.08;;;1.63;;
57191;SDS011;43052;52.588;13.396;2023-07-20T14:00:37;1.23;;;0.90;;
57191;SDS011;43052;52.588;13.396;2023-07-20T14:03:03;1.30;;;1.08;;
57191;SDS011;43052;52.588;13.396;2023-07-20T14:05:28;1.15;;;1.00;;
57191;SDS011;43052;52.588;13.396;2023-07-20T14:07:53;2.38;;;0.90;;
57191;SDS011;43052;52.588;13.396;2023-07-20T14:10:19;0.98;;;0.90;;
57191;SDS011;43052;52.588;13.396;2023-07-20T14:12:44;0.80;;;0.80;;
57191;SDS011;43052;52.588;13.396;2023-07-20T14:15:10;1.17;;;0.90;;
57191;SDS011;43052;52.588;13.396;2023-07-20T14:17:38;1.85;;;0.90;;
57191;SDS011;43052;52.588;13.396;2023-07-20T14:20:09;0.73;;;0.73;;
57191;SDS011;43052;52.588;13.396;2023-07-20T14:22:34;1.27;;;0.88;;
57191;SDS011;43052;52.588;13.396;2023-07-20T14:25:00;0.80;;;0.80;;
57191;SDS011;43052;52.588;13.396;2023-07-20T14:27:25;1.85;;;0.82;;
57191;SDS011;43052;52.588;13.396;2023-07-20T14:29:50;0.93;;;0.90;;
57191;SDS011;43052;52.588;13.396;2023-07-20T14:32:16;0.80;;;0.80;;
57191;SDS011;43052;52.588;13.396;2023-07-20T14:34:41;2.38;;;1.02;;
57191;SDS011;43052;52.588;13.396;2023-07-20T14:37:06;2.58;;;0.90;;
57191;SDS011;43052;52.588;13.396;2023-07-20T14:39:39;2.30;;;0.90;;
57191;SDS011;43052;52.588;13.396;2023-07-20T14:42:04;2.40;;;0.90;;
57191;SDS011;43052;52.588;13.396;2023-07-20T14:44:32;4.97;;;1.10;;
57191;SDS011;43052;52.588;13.396;2023-07-20T14:46:58;2.08;;;1.00;;
57191;SDS011;43052;52.588;13.396;2023-07-20T14:49:25;1.52;;;1.00;;
57191;SDS011;43052;52.588;13.396;2023-07-20T14:51:56;1.08;;;0.88;;
57191;SDS011;43052;52.588;13.396;2023-07-20T14:54:51;1.33;;;0.98;;
57191;SDS011;43052;52.588;13.396;2023-07-20T14:57:17;1.60;;;1.30;;
57191;SDS011;43052;52.588;13.396;2023-07-20T15:02:50;1.10;;;1.00;;
57191;SDS011;43052;52.588;13.396;2023-07-20T15:05:21;1.40;;;1.00;;